sensor_id;sensor_type;location;lat;lon;timestamp;pressure;altitude;pressure_sealevel;temperature;humidity
6433;BME280;3249;42.690;23.260;2022-08-14T00:01:56;93896.66;;;18.01;100.00
6433;BME280;3249;42.690;23.260;2022-08-14T00:04:22;93899.34;;;17.91;100.00
6433;BME280;3249;42.690;23.260;2022-08-14T00:06:47;93893.09;;;17.87;100.00
6433;BME280;3249;42.690;23.260;2022-08-14T00:09:13;93879.94;;;17.64;100.00
6433;BME280;3249;42.690;23.260;2022-08-14T00:11:38;93887.81;;;17.54;100.00
6433;BME280;3249;42.690;23.260;2022-08-14T00:14:04;93882.31;;;17.60;100.00
6433;BME280;3249;42.690;23.260;2022-08-14T00:16:29;93874.50;;;17.60;100.00
6433;BME280;3249;42.690;23.260;2022-08-14T00:18:57;93873.38;;;17.76;100.00
6433;BME280;3249;42.690;23.260;2022-08-14T00:21:22;93865.00;;;17.84;100.00
6433;BME280;3249;42.690;23.260;2022-08-14T00:23:48;93875.84;;;17.96;100.00
6433;BME280;3249;42.690;23.260;2022-08-14T00:26:15;93859.00;;;17.89;100.00
6433;BME280;3249;42.690;23.260;2022-08-14T00:28:41;93881.50;;;18.08;100.00
6433;BME280;3249;42.690;23.260;2022-08-14T00:31:06;93880.00;;;17.97;100.00
6433;BME280;3249;42.690;23.260;2022-08-14T00:33:32;93866.31;;;17.82;100.00
6433;BME280;3249;42.690;23.260;2022-08-14T00:35:58;93849.69;;;17.78;100.00
6433;BME280;3249;42.690;23.260;2022-08-14T00:38:23;93881.59;;;17.93;100.00
6433;BME280;3249;42.690;23.260;2022-08-14T00:40:49;93878.97;;;17.98;100.00
6433;BME280;3249;42.690;23.260;2022-08-14T00:43:15;93869.66;;;17.87;100.00
6433;BME280;3249;42.690;23.260;2022-08-14T00:45:41;93874.47;;;17.70;100.00
6433;BME280;3249;42.690;23.260;2022-08-14T00:48:07;93865.66;;;17.61;100.00
6433;BME280;3249;42.690;23.260;2022-08-14T00:50:34;93871.75;;;17.85;100.00
6433;BME280;3249;42.690;23.260;2022-08-14T00:52:59;93870.59;;;18.01;100.00
6433;BME280;3249;42.690;23.260;2022-08-14T00:55:26;93876.13;;;17.95;100.00
6433;BME280;3249;42.690;23.260;2022-08-14T00:57:52;93868.25;;;18.05;100.00
6433;BME280;3249;42.690;23.260;2022-08-14T01:00:37;93871.16;;;17.98;100.00
6433;BME280;3249;42.690;23.260;2022-08-14T01:03:05;93845.91;;;17.94;100.00
6433;BME280;3249;42.690;23.260;2022-08-14T01:05:31;93847.19;;;17.96;100.00
6433;BME280;3249;42.690;23.260;2022-08-14T01:07:59;93853.38;;;18.11;100.00
6433;BME280;3249;42.690;23.260;2022-08-14T01:10:27;93859.50;;;18.25;100.00
6433;BME280;3249;42.690;23.260;2022-08-14T01:13:19;93830.47;;;17.69;100.00
6433;BME280;3249;42.690;23.260;2022-08-14T01:15:48;93841.13;;;17.72;100.00
6433;BME280;3249;42.690;23.260;2022-08-14T01:18:14;93838.41;;;17.87;100.00
6433;BME280;3249;42.690;23.260;2022-08-14T01:20:59;93822.78;;;17.87;100.00
6433;BME280;3249;42.690;23.260;2022-08-14T01:23:29;93834.69;;;17.98;100.00
6433;BME280;3249;42.690;23.260;2022-08-14T01:25:56;93831.69;;;18.15;100.00
6433;BME280;3249;42.690;23.260;2022-08-14T01:28:23;93828.16;;;18.01;100.00
6433;BME280;3249;42.690;23.260;2022-08-14T01:30:51;93822.41;;;17.65;100.00
6433;BME280;3249;42.690;23.260;2022-08-14T01:33:21;93801.75;;;17.35;100.00
6433;BME280;3249;42.690;23.260;2022-08-14T01:35:46;93826.94;;;17.40;100.00
6433;BME280;3249;42.690;23.260;2022-08-14T01:38:12;93821.13;;;17.09;100.00
6433;BME280;3249;42.690;23.260;2022-08-14T01:40:40;93819.47;;;17.28;100.00
6433;BME280;3249;42.690;23.260;2022-08-14T01:43:11;93835.25;;;17.52;100.00
6433;BME280;3249;42.690;23.260;2022-08-14T01:45:38;93836.25;;;17.56;100.00
6433;BME280;3249;42.690;23.260;2022-08-14T01:48:05;93839.19;;;17.44;100.00
6433;BME280;3249;42.690;23.260;2022-08-14T01:50:30;93837.03;;;17.56;100.00
6433;BME280;3249;42.690;23.260;2022-08-14T01:52:56;93834.94;;;17.63;100.00
6433;BME280;3249;42.690;23.260;2022-08-14T01:55:24;93828.66;;;17.64;100.00
6433;BME280;3249;42.690;23.260;2022-08-14T01:57:54;93822.94;;;17.67;100.00
6433;BME280;3249;42.690;23.260;2022-08-14T02:00:20;93818.81;;;17.56;100.00
6433;BME280;3249;42.690;23.260;2022-08-14T02:02:45;93826.50;;;17.76;100.00
6433;BME280;3249;42.690;23.260;2022-08-14T02:05:12;93824.47;;;17.68;100.00
6433;BME280;3249;42.690;23.260;2022-08-14T02:07:39;93825.97;;;17.31;100.00
6433;BME280;3249;42.690;23.260;2022-08-14T02:10:06;93826.22;;;17.29;100.00
6433;BME280;3249;42.690;23.260;2022-08-14T02:12:32;93822.59;;;17.30;100.00
6433;BME280;3249;42.690;23.260;2022-08-14T02:14:57;93823.94;;;17.18;100.00
6433;BME280;3249;42.690;23.260;2022-08-14T02:17:26;93824.91;;;17.42;100.00
6433;BME280;3249;42.690;23.260;2022-08-14T02:19:51;93820.50;;;17.32;100.00
6433;BME280;3249;42.690;23.260;2022-08-14T02:22:18;93814.41;;;17.57;100.00
6433;BME280;3249;42.690;23.260;2022-08-14T02:24:43;93826.28;;;17.68;100.00
6433;BME280;3249;42.690;23.260;2022-08-14T02:27:09;93817.81;;;17.52;100.00
6433;BME280;3249;42.690;23.260;2022-08-14T02:29:36;93817.84;;;17.37;100.00
6433;BME280;3249;42.690;23.260;2022-08-14T02:32:02;93812.09;;;17.50;100.00
6433;BME280;3249;42.690;23.260;2022-08-14T02:34:30;93814.16;;;17.58;100.00
6433;BME280;3249;42.690;23.260;2022-08-14T02:37:02;93815.34;;;17.71;100.00
6433;BME280;3249;42.690;23.260;2022-08-14T02:39:29;93809.47;;;17.55;100.00
6433;BME280;3249;42.690;23.260;2022-08-14T02:41:57;93813.72;;;17.36;100.00
6433;BME280;3249;42.690;23.260;2022-08-14T02:44:23;93820.91;;;17.59;100.00
6433;BME280;3249;42.690;23.260;2022-08-14T02:46:52;93809.94;;;17.62;100.00
6433;BME280;3249;42.690;23.260;2022-08-14T02:49:20;93806.88;;;17.55;100.00
6433;BME280;3249;42.690;23.260;2022-08-14T02:51:52;93814.19;;;17.48;100.00
6433;BME280;3249;42.690;23.260;2022-08-14T02:54:17;93812.09;;;17.50;100.00
6433;BME280;3249;42.690;23.260;2022-08-14T02:56:44;93821.19;;;17.53;100.00
6433;BME280;3249;42.690;23.260;2022-08-14T02:59:10;93815.28;;;17.42;100.00
6433;BME280;3249;42.690;23.260;2022-08-14T03:01:38;93820.41;;;17.52;100.00
6433;BME280;3249;42.690;23.260;2022-08-14T03:04:04;93819.63;;;17.57;100.00
6433;BME280;3249;42.690;23.260;2022-08-14T03:06:34;93825.63;;;17.52;100.00
6433;BME280;3249;42.690;23.260;2022-08-14T03:08:59;93820.97;;;17.44;100.00
6433;BME280;3249;42.690;23.260;2022-08-14T03:11:25;93815.28;;;17.42;100.00
6433;BME280;3249;42.690;23.260;2022-08-14T03:13:51;93810.06;;;17.37;100.00
6433;BME280;3249;42.690;23.260;2022-08-14T03:16:23;93813.44;;;17.43;100.00
6433;BME280;3249;42.690;23.260;2022-08-14T03:18:51;93804.25;;;17.02;100.00
6433;BME280;3249;42.690;23.260;2022-08-14T03:21:21;93818.00;;;17.07;100.00
6433;BME280;3249;42.690;23.260;2022-08-14T03:23:49;93810.69;;;17.19;100.00
6433;BME280;3249;42.690;23.260;2022-08-14T03:26:17;93793.00;;;17.16;100.00
6433;BME280;3249;42.690;23.260;2022-08-14T03:28:48;93817.84;;;17.37;100.00
6433;BME280;3249;42.690;23.260;2022-08-14T03:31:15;93821.28;;;17.33;100.00
6433;BME280;3249;42.690;23.260;2022-08-14T03:33:41;93828.41;;;17.07;100.00
6433;BME280;3249;42.690;23.260;2022-08-14T03:36:12;93830.53;;;16.90;100.00
6433;BME280;3249;42.690;23.260;2022-08-14T03:38:41;93827.72;;;16.82;100.00
6433;BME280;3249;42.690;23.260;2022-08-14T03:41:18;93815.78;;;16.81;100.00
6433;BME280;3249;42.690;23.260;2022-08-14T03:43:46;93825.25;;;17.10;100.00
6433;BME280;3249;42.690;23.260;2022-08-14T03:46:12;93821.34;;;17.18;100.00
6433;BME280;3249;42.690;23.260;2022-08-14T03:48:39;93822.97;;;17.09;100.00
6433;BME280;3249;42.690;23.260;2022-08-14T03:51:07;93828.16;;;17.04;100.00
6433;BME280;3249;42.690;23.260;2022-08-14T03:53:34;93818.56;;;16.99;100.00
6433;BME280;3249;42.690;23.260;2022-08-14T03:56:06;93824.34;;;16.81;100.00
6433;BME280;3249;42.690;23.260;2022-08-14T03:58:32;93820.94;;;16.91;100.00
6433;BME280;3249;42.690;23.260;2022-08-14T04:00:59;93819.06;;;17.01;100.00
6433;BME280;3249;42.690;23.260;2022-08-14T04:03:25;93820.06;;;17.15;100.00
6433;BME280;3249;42.690;23.260;2022-08-14T04:05:51;93818.41;;;17.29;100.00
6433;BME280;3249;42.690;23.260;2022-08-14T04:08:18;93824.34;;;17.40;100.00
6433;BME280;3249;42.690;23.260;2022-08-14T04:10:44;93820.34;;;17.04;100.00
6433;BME280;3249;42.690;23.260;2022-08-14T04:13:11;93827.47;;;16.78;100.00
6433;BME280;3249;42.690;23.260;2022-08-14T04:15:37;93828.47;;;16.92;100.00
6433;BME280;3249;42.690;23.260;2022-08-14T04:18:04;93832.34;;;17.05;100.00
6433;BME280;3249;42.690;23.260;2022-08-14T04:20:33;93831.03;;;17.07;100.00
6433;BME280;3249;42.690;23.260;2022-08-14T04:22:59;93832.13;;;16.86;100.00
6433;BME280;3249;42.690;23.260;2022-08-14T04:25:25;93830.31;;;16.87;100.00
6433;BME280;3249;42.690;23.260;2022-08-14T04:27:50;93830.00;;;16.98;100.00
6433;BME280;3249;42.690;23.260;2022-08-14T04:30:16;93826.28;;;17.19;100.00
6433;BME280;3249;42.690;23.260;2022-08-14T04:32:41;93798.47;;;17.15;100.00
6433;BME280;3249;42.690;23.260;2022-08-14T04:35:07;93814.75;;;17.35;100.00
6433;BME280;3249;42.690;23.260;2022-08-14T04:37:34;93836.56;;;17.54;100.00
6433;BME280;3249;42.690;23.260;2022-08-14T04:40:19;93832.31;;;17.63;100.00
6433;BME280;3249;42.690;23.260;2022-08-14T04:43:03;93825.81;;;17.66;100.00
6433;BME280;3249;42.690;23.260;2022-08-14T04:45:47;93840.50;;;17.85;100.00
6433;BME280;3249;42.690;23.260;2022-08-14T04:48:14;93845.44;;;17.87;100.00
6433;BME280;3249;42.690;23.260;2022-08-14T04:50:50;93838.84;;;17.99;100.00
6433;BME280;3249;42.690;23.260;2022-08-14T04:53:21;93843.22;;;18.09;100.00
6433;BME280;3249;42.690;23.260;2022-08-14T04:55:48;93842.34;;;18.19;100.00
6433;BME280;3249;42.690;23.260;2022-08-14T04:58:19;93837.25;;;18.03;100.00
6433;BME280;3249;42.690;23.260;2022-08-14T05:00:46;93839.00;;;18.13;100.00
6433;BME280;3249;42.690;23.260;2022-08-14T05:03:16;93817.06;;;17.85;100.00
6433;BME280;3249;42.690;23.260;2022-08-14T05:05:41;93828.50;;;17.89;100.00
6433;BME280;3249;42.690;23.260;2022-08-14T05:08:09;93832.97;;;18.17;100.00
6433;BME280;3249;42.690;23.260;2022-08-14T05:10:38;93830.25;;;18.33;100.00
6433;BME280;3249;42.690;23.260;2022-08-14T05:13:04;93812.78;;;18.33;100.00
6433;BME280;3249;42.690;23.260;2022-08-14T05:15:32;93831.75;;;18.44;100.00
6433;BME280;3249;42.690;23.260;2022-08-14T05:18:01;93844.25;;;18.42;100.00
6433;BME280;3249;42.690;23.260;2022-08-14T05:20:27;93845.78;;;18.48;100.00
6433;BME280;3249;42.690;23.260;2022-08-14T05:22:52;93850.94;;;18.53;100.00
6433;BME280;3249;42.690;23.260;2022-08-14T05:25:18;93852.00;;;18.52;100.00
6433;BME280;3249;42.690;23.260;2022-08-14T05:27:44;93853.88;;;18.46;100.00
6433;BME280;3249;42.690;23.260;2022-08-14T05:30:10;93854.13;;;18.45;100.00
6433;BME280;3249;42.690;23.260;2022-08-14T05:32:35;93845.31;;;18.41;100.00
6433;BME280;3249;42.690;23.260;2022-08-14T05:35:03;93852.28;;;18.50;100.00
6433;BME280;3249;42.690;23.260;2022-08-14T05:37:28;93848.34;;;18.53;100.00
6433;BME280;3249;42.690;23.260;2022-08-14T05:39:55;93837.97;;;18.48;100.00
6433;BME280;3249;42.690;23.260;2022-08-14T05:42:21;93859.69;;;18.67;100.00
6433;BME280;3249;42.690;23.260;2022-08-14T05:44:46;93860.19;;;18.69;100.00
6433;BME280;3249;42.690;23.260;2022-08-14T05:47:12;93857.56;;;18.69;100.00
6433;BME280;3249;42.690;23.260;2022-08-14T05:49:37;93862.19;;;18.77;100.00
6433;BME280;3249;42.690;23.260;2022-08-14T05:52:03;93855.88;;;18.83;100.00
6433;BME280;3249;42.690;23.260;2022-08-14T05:54:29;93862.38;;;18.85;100.00
6433;BME280;3249;42.690;23.260;2022-08-14T05:56:55;93859.88;;;18.99;100.00
6433;BME280;3249;42.690;23.260;2022-08-14T05:59:20;93861.53;;;19.13;100.00
6433;BME280;3249;42.690;23.260;2022-08-14T06:01:46;93861.13;;;19.30;100.00
6433;BME280;3249;42.690;23.260;2022-08-14T06:04:11;93857.91;;;19.38;100.00
6433;BME280;3249;42.690;23.260;2022-08-14T06:06:37;93837.50;;;19.40;100.00
6433;BME280;3249;42.690;23.260;2022-08-14T06:09:02;93865.59;;;19.66;100.00
6433;BME280;3249;42.690;23.260;2022-08-14T06:11:27;93873.03;;;19.78;100.00
6433;BME280;3249;42.690;23.260;2022-08-14T06:13:53;93878.31;;;19.73;100.00
6433;BME280;3249;42.690;23.260;2022-08-14T06:16:18;93884.16;;;19.65;100.00
6433;BME280;3249;42.690;23.260;2022-08-14T06:18:47;93878.72;;;19.61;100.00
6433;BME280;3249;42.690;23.260;2022-08-14T06:21:13;93871.72;;;19.38;100.00
6433;BME280;3249;42.690;23.260;2022-08-14T06:23:40;93884.66;;;19.48;100.00
6433;BME280;3249;42.690;23.260;2022-08-14T06:26:05;93889.81;;;19.53;100.00
6433;BME280;3249;42.690;23.260;2022-08-14T06:28:30;93898.97;;;19.51;100.00
6433;BME280;3249;42.690;23.260;2022-08-14T06:30:56;93891.97;;;19.46;100.00
6433;BME280;3249;42.690;23.260;2022-08-14T06:33:21;93873.50;;;19.43;100.00
6433;BME280;3249;42.690;23.260;2022-08-14T06:35:47;93866.91;;;19.27;100.00
6433;BME280;3249;42.690;23.260;2022-08-14T06:38:21;93872.06;;;19.32;100.00
6433;BME280;3249;42.690;23.260;2022-08-14T06:40:48;93878.41;;;19.21;100.00
6433;BME280;3249;42.690;23.260;2022-08-14T06:43:15;93878.69;;;19.19;100.00
6433;BME280;3249;42.690;23.260;2022-08-14T06:45:42;93856.50;;;19.22;100.00
6433;BME280;3249;42.690;23.260;2022-08-14T06:48:15;93891.44;;;19.26;100.00
6433;BME280;3249;42.690;23.260;2022-08-14T06:50:42;93877.91;;;18.95;100.00
6433;BME280;3249;42.690;23.260;2022-08-14T06:53:09;93881.28;;;18.96;100.00
6433;BME280;3249;42.690;23.260;2022-08-14T06:55:34;93876.69;;;18.59;100.00
6433;BME280;3249;42.690;23.260;2022-08-14T06:58:00;93882.31;;;18.43;100.00
6433;BME280;3249;42.690;23.260;2022-08-14T07:00:27;93871.09;;;18.42;100.00
6433;BME280;3249;42.690;23.260;2022-08-14T07:02:53;93866.38;;;18.49;100.00
6433;BME280;3249;42.690;23.260;2022-08-14T07:05:38;93864.47;;;18.21;100.00
6433;BME280;3249;42.690;23.260;2022-08-14T07:08:26;93861.09;;;18.21;100.00
6433;BME280;3249;42.690;23.260;2022-08-14T07:11:00;93871.19;;;18.61;100.00
6433;BME280;3249;42.690;23.260;2022-08-14T07:13:28;93865.41;;;18.40;100.00
6433;BME280;3249;42.690;23.260;2022-08-14T07:15:56;93878.75;;;18.62;100.00
6433;BME280;3249;42.690;23.260;2022-08-14T07:18:24;93874.72;;;18.46;100.00
6433;BME280;3249;42.690;23.260;2022-08-14T07:20:50;93879.03;;;18.61;100.00
6433;BME280;3249;42.690;23.260;2022-08-14T07:23:17;93876.47;;;18.56;100.00
6433;BME280;3249;42.690;23.260;2022-08-14T07:25:43;93872.03;;;18.23;100.00
6433;BME280;3249;42.690;23.260;2022-08-14T07:28:18;93874.53;;;18.33;100.00
6433;BME280;3249;42.690;23.260;2022-08-14T07:30:44;93864.78;;;18.15;100.00
6433;BME280;3249;42.690;23.260;2022-08-14T07:33:11;93859.53;;;17.86;100.00
6433;BME280;3249;42.690;23.260;2022-08-14T07:35:39;93867.28;;;17.96;100.00
6433;BME280;3249;42.690;23.260;2022-08-14T07:38:05;93879.75;;;18.38;100.00
6433;BME280;3249;42.690;23.260;2022-08-14T07:40:32;93889.44;;;18.61;100.00
6433;BME280;3249;42.690;23.260;2022-08-14T07:42:59;93891.66;;;18.77;100.00
6433;BME280;3249;42.690;23.260;2022-08-14T07:45:25;93889.19;;;18.91;100.00
6433;BME280;3249;42.690;23.260;2022-08-14T07:47:51;93887.31;;;18.96;100.00
6433;BME280;3249;42.690;23.260;2022-08-14T07:50:18;93869.75;;;19.02;100.00
6433;BME280;3249;42.690;23.260;2022-08-14T07:52:47;93906.25;;;19.54;100.00
6433;BME280;3249;42.690;23.260;2022-08-14T07:55:14;93898.09;;;19.79;100.00
6433;BME280;3249;42.690;23.260;2022-08-14T07:57:41;93902.06;;;19.95;100.00
6433;BME280;3249;42.690;23.260;2022-08-14T08:00:10;93900.44;;;19.99;100.00
6433;BME280;3249;42.690;23.260;2022-08-14T08:02:38;93914.78;;;20.20;100.00
6433;BME280;3249;42.690;23.260;2022-08-14T08:05:05;93900.16;;;20.00;100.00
6433;BME280;3249;42.690;23.260;2022-08-14T08:07:30;93915.25;;;19.85;100.00
6433;BME280;3249;42.690;23.260;2022-08-14T08:09:58;93888.34;;;19.84;100.00
6433;BME280;3249;42.690;23.260;2022-08-14T08:12:24;93906.72;;;19.98;100.00
6433;BME280;3249;42.690;23.260;2022-08-14T08:14:50;93900.56;;;19.28;100.00
6433;BME280;3249;42.690;23.260;2022-08-14T08:17:19;93895.34;;;19.00;100.00
6433;BME280;3249;42.690;23.260;2022-08-14T08:19:46;93901.16;;;18.92;100.00
6433;BME280;3249;42.690;23.260;2022-08-14T08:22:13;93892.84;;;18.90;100.00
6433;BME280;3249;42.690;23.260;2022-08-14T08:24:38;93900.84;;;19.22;100.00
6433;BME280;3249;42.690;23.260;2022-08-14T08:27:16;93893.72;;;19.04;100.00
6433;BME280;3249;42.690;23.260;2022-08-14T08:29:42;93889.72;;;18.88;100.00
6433;BME280;3249;42.690;23.260;2022-08-14T08:32:07;93899.34;;;19.16;100.00
6433;BME280;3249;42.690;23.260;2022-08-14T08:34:44;93895.44;;;19.42;100.00
6433;BME280;3249;42.690;23.260;2022-08-14T08:37:10;93902.44;;;19.65;100.00
6433;BME280;3249;42.690;23.260;2022-08-14T08:39:46;93900.91;;;19.82;100.00
6433;BME280;3249;42.690;23.260;2022-08-14T08:42:12;93899.81;;;19.88;100.00
6433;BME280;3249;42.690;23.260;2022-08-14T08:44:37;93894.19;;;19.58;100.00
6433;BME280;3249;42.690;23.260;2022-08-14T08:47:03;93907.09;;;19.91;100.00
6433;BME280;3249;42.690;23.260;2022-08-14T08:49:38;93874.03;;;19.82;100.00
6433;BME280;3249;42.690;23.260;2022-08-14T08:52:06;93901.59;;;20.30;100.00
6433;BME280;3249;42.690;23.260;2022-08-14T08:54:33;93878.00;;;20.48;100.00
6433;BME280;3249;42.690;23.260;2022-08-14T08:56:58;93893.94;;;20.65;100.00
6433;BME280;3249;42.690;23.260;2022-08-14T08:59:25;93897.91;;;20.95;100.00
6433;BME280;3249;42.690;23.260;2022-08-14T09:01:56;93896.47;;;21.29;100.00
6433;BME280;3249;42.690;23.260;2022-08-14T09:04:27;93890.50;;;20.83;100.00
6433;BME280;3249;42.690;23.260;2022-08-14T09:06:53;93890.94;;;20.72;100.00
6433;BME280;3249;42.690;23.260;2022-08-14T09:09:25;93888.72;;;21.11;100.00
6433;BME280;3249;42.690;23.260;2022-08-14T09:11:51;93888.22;;;20.95;100.00
6433;BME280;3249;42.690;23.260;2022-08-14T09:14:21;93863.44;;;20.10;100.00
6433;BME280;3249;42.690;23.260;2022-08-14T09:16:50;93860.69;;;20.02;100.00
6433;BME280;3249;42.690;23.260;2022-08-14T09:19:17;93868.72;;;20.56;100.00
6433;BME280;3249;42.690;23.260;2022-08-14T09:21:43;93874.66;;;20.29;100.00
6433;BME280;3249;42.690;23.260;2022-08-14T09:24:10;93868.53;;;20.52;100.00
6433;BME280;3249;42.690;23.260;2022-08-14T09:26:36;93884.34;;;20.29;100.00
6433;BME280;3249;42.690;23.260;2022-08-14T09:29:05;93881.97;;;20.14;100.00
6433;BME280;3249;42.690;23.260;2022-08-14T09:31:32;93871.66;;;20.54;100.00
6433;BME280;3249;42.690;23.260;2022-08-14T09:36:54;93885.13;;;21.20;100.00
6433;BME280;3249;42.690;23.260;2022-08-14T09:40:07;93865.16;;;21.11;100.00
6433;BME280;3249;42.690;23.260;2022-08-14T09:42:49;93879.13;;;21.47;100.00
6433;BME280;3249;42.690;23.260;2022-08-14T09:45:17;93885.53;;;21.81;100.00
6433;BME280;3249;42.690;23.260;2022-08-14T09:47:53;93888.63;;;21.43;100.00
6433;BME280;3249;42.690;23.260;2022-08-14T09:53:02;93879.31;;;21.50;100.00
6433;BME280;3249;42.690;23.260;2022-08-14T09:55:30;93873.41;;;21.58;100.00
6433;BME280;3249;42.690;23.260;2022-08-14T09:58:19;93877.09;;;21.44;100.00
6433;BME280;3249;42.690;23.260;2022-08-14T10:00:53;93875.91;;;20.96;100.00
6433;BME280;3249;42.690;23.260;2022-08-14T10:03:34;93872.72;;;21.12;100.00
6433;BME280;3249;42.690;23.260;2022-08-14T10:08:39;93883.38;;;21.70;100.00
6433;BME280;3249;42.690;23.260;2022-08-14T10:11:17;93869.19;;;21.84;100.00
6433;BME280;3249;42.690;23.260;2022-08-14T10:13:45;93882.94;;;22.03;100.00
6433;BME280;3249;42.690;23.260;2022-08-14T10:16:11;93884.47;;;21.28;100.00
6433;BME280;3249;42.690;23.260;2022-08-14T10:18:39;93869.47;;;21.69;100.00
6433;BME280;3249;42.690;23.260;2022-08-14T10:21:07;93885.81;;;22.16;100.00
6433;BME280;3249;42.690;23.260;2022-08-14T10:23:45;93885.53;;;21.68;100.00
6433;BME280;3249;42.690;23.260;2022-08-14T10:26:17;93872.72;;;21.53;100.00
6433;BME280;3249;42.690;23.260;2022-08-14T10:28:48;93874.09;;;21.50;100.00
6433;BME280;3249;42.690;23.260;2022-08-14T10:31:25;93876.97;;;21.89;100.00
6433;BME280;3249;42.690;23.260;2022-08-14T10:34:07;93884.16;;;22.55;100.00
6433;BME280;3249;42.690;23.260;2022-08-14T10:36:41;93875.06;;;22.03;100.00
6433;BME280;3249;42.690;23.260;2022-08-14T10:39:19;93864.28;;;22.05;100.00
6433;BME280;3249;42.690;23.260;2022-08-14T10:41:45;93868.75;;;22.04;100.00
6433;BME280;3249;42.690;23.260;2022-08-14T10:44:13;93860.50;;;22.33;100.00
6433;BME280;3249;42.690;23.260;2022-08-14T10:49:20;93853.00;;;22.40;100.00
6433;BME280;3249;42.690;23.260;2022-08-14T10:52:05;93848.88;;;22.70;100.00
6433;BME280;3249;42.690;23.260;2022-08-14T10:54:45;93843.50;;;22.75;100.00
6433;BME280;3249;42.690;23.260;2022-08-14T10:57:20;93837.00;;;22.28;100.00
6433;BME280;3249;42.690;23.260;2022-08-14T10:59:52;93838.59;;;22.51;100.00
6433;BME280;3249;42.690;23.260;2022-08-14T11:05:16;93844.47;;;23.18;100.00
6433;BME280;3249;42.690;23.260;2022-08-14T11:07:58;93832.78;;;23.32;100.00
6433;BME280;3249;42.690;23.260;2022-08-14T11:13:04;93833.38;;;23.21;100.00
6433;BME280;3249;42.690;23.260;2022-08-14T11:15:31;93809.63;;;22.95;100.00
6433;BME280;3249;42.690;23.260;2022-08-14T11:17:57;93820.28;;;23.46;100.00
6433;BME280;3249;42.690;23.260;2022-08-14T11:20:24;93818.75;;;23.62;100.00
6433;BME280;3249;42.690;23.260;2022-08-14T11:22:55;93811.06;;;23.74;100.00
6433;BME280;3249;42.690;23.260;2022-08-14T11:25:22;93815.56;;;23.91;100.00
6433;BME280;3249;42.690;23.260;2022-08-14T11:27:53;93818.22;;;23.99;100.00
6433;BME280;3249;42.690;23.260;2022-08-14T11:30:23;93812.94;;;24.16;100.00
6433;BME280;3249;42.690;23.260;2022-08-14T11:32:50;93818.66;;;24.44;100.00
6433;BME280;3249;42.690;23.260;2022-08-14T11:35:18;93819.09;;;24.37;100.00
6433;BME280;3249;42.690;23.260;2022-08-14T11:37:52;93821.75;;;24.20;100.00
6433;BME280;3249;42.690;23.260;2022-08-14T11:40:20;93816.50;;;23.86;100.00
6433;BME280;3249;42.690;23.260;2022-08-14T11:42:46;93830.53;;;23.56;100.00
6433;BME280;3249;42.690;23.260;2022-08-14T11:45:13;93832.84;;;23.75;100.00
6433;BME280;3249;42.690;23.260;2022-08-14T11:47:39;93817.41;;;23.65;100.00
6433;BME280;3249;42.690;23.260;2022-08-14T11:50:15;93831.53;;;23.94;100.00
6433;BME280;3249;42.690;23.260;2022-08-14T11:52:42;93808.28;;;23.88;100.00
6433;BME280;3249;42.690;23.260;2022-08-14T11:55:10;93831.84;;;24.10;100.00
6433;BME280;3249;42.690;23.260;2022-08-14T11:57:37;93827.50;;;24.05;100.00
6433;BME280;3249;42.690;23.260;2022-08-14T12:00:06;93822.53;;;24.12;100.00
6433;BME280;3249;42.690;23.260;2022-08-14T12:02:34;93821.63;;;24.17;100.00
6433;BME280;3249;42.690;23.260;2022-08-14T12:05:00;93814.47;;;24.17;100.00
6433;BME280;3249;42.690;23.260;2022-08-14T12:07:25;93821.44;;;24.39;98.67
6433;BME280;3249;42.690;23.260;2022-08-14T12:09:53;93819.22;;;24.58;100.00
6433;BME280;3249;42.690;23.260;2022-08-14T12:14:52;93824.97;;;24.68;100.00
6433;BME280;3249;42.690;23.260;2022-08-14T12:17:24;93825.47;;;24.36;100.00
6433;BME280;3249;42.690;23.260;2022-08-14T12:19:52;93813.72;;;24.17;100.00
6433;BME280;3249;42.690;23.260;2022-08-14T12:22:40;93820.06;;;24.07;100.00
6433;BME280;3249;42.690;23.260;2022-08-14T12:25:14;93814.50;;;24.00;100.00
6433;BME280;3249;42.690;23.260;2022-08-14T12:27:47;93808.03;;;24.06;100.00
6433;BME280;3249;42.690;23.260;2022-08-14T12:30:38;93806.16;;;24.15;100.00
6433;BME280;3249;42.690;23.260;2022-08-14T12:33:06;93775.97;;;23.62;100.00
6433;BME280;3249;42.690;23.260;2022-08-14T12:35:46;93791.75;;;23.96;100.00
6433;BME280;3249;42.690;23.260;2022-08-14T12:38:13;93790.53;;;23.93;100.00
6433;BME280;3249;42.690;23.260;2022-08-14T12:40:50;93789.72;;;23.84;100.00
6433;BME280;3249;42.690;23.260;2022-08-14T12:43:17;93795.75;;;23.68;100.00
6433;BME280;3249;42.690;23.260;2022-08-14T12:45:53;93791.88;;;23.65;100.00
6433;BME280;3249;42.690;23.260;2022-08-14T12:48:23;93792.66;;;23.66;100.00
6433;BME280;3249;42.690;23.260;2022-08-14T12:50:49;93798.38;;;23.68;100.00
6433;BME280;3249;42.690;23.260;2022-08-14T12:53:19;93781.97;;;23.54;100.00
6433;BME280;3249;42.690;23.260;2022-08-14T12:55:56;93788.00;;;23.63;100.00
6433;BME280;3249;42.690;23.260;2022-08-14T12:58:27;93781.97;;;23.45;100.00
6433;BME280;3249;42.690;23.260;2022-08-14T13:00:54;93782.25;;;23.35;100.00
6433;BME280;3249;42.690;23.260;2022-08-14T13:03:28;93773.59;;;23.35;100.00
6433;BME280;3249;42.690;23.260;2022-08-14T13:05:54;93784.13;;;23.43;100.00
6433;BME280;3249;42.690;23.260;2022-08-14T13:08:21;93773.91;;;23.50;100.00
6433;BME280;3249;42.690;23.260;2022-08-14T13:10:48;93771.78;;;23.61;100.00
6433;BME280;3249;42.690;23.260;2022-08-14T13:13:18;93768.22;;;23.48;100.00
6433;BME280;3249;42.690;23.260;2022-08-14T13:15:46;93758.63;;;23.69;100.00
6433;BME280;3249;42.690;23.260;2022-08-14T13:18:15;93768.38;;;23.77;100.00
6433;BME280;3249;42.690;23.260;2022-08-14T13:20:41;93764.09;;;23.98;100.00
6433;BME280;3249;42.690;23.260;2022-08-14T13:23:08;93741.78;;;23.87;100.00
6433;BME280;3249;42.690;23.260;2022-08-14T13:25:34;93755.72;;;23.96;100.00
6433;BME280;3249;42.690;23.260;2022-08-14T13:28:02;93769.94;;;24.12;100.00